createdAt,value
2023-01-29T00:00:22.486Z,100968.02
2023-01-29T00:02:49.153Z,100974.91
2023-01-29T00:05:27.473Z,100970.60
2023-01-29T00:07:55.750Z,100967.54
2023-01-29T00:10:22.636Z,100968.98
2023-01-29T00:12:49.208Z,100968.66
2023-01-29T00:15:15.785Z,100974.24
2023-01-29T00:17:42.268Z,100977.01
2023-01-29T00:20:09.553Z,100982.29
2023-01-29T00:22:36.111Z,100977.88
2023-01-29T00:25:02.772Z,100980.51
2023-01-29T00:27:29.609Z,100982.28
2023-01-29T00:29:56.127Z,100980.18
2023-01-29T00:32:22.661Z,100986.61
2023-01-29T00:34:49.166Z,100989.30
2023-01-29T00:37:15.655Z,100987.52
2023-01-29T00:39:48.147Z,100990.34
2023-01-29T00:42:15.016Z,100992.09
2023-01-29T00:44:41.525Z,100999.82
2023-01-29T00:47:08.063Z,100994.08
2023-01-29T00:49:34.563Z,100994.08
2023-01-29T00:52:01.038Z,100996.20
2023-01-29T00:54:27.519Z,100997.63
2023-01-29T00:56:53.983Z,100995.30
2023-01-29T00:59:20.460Z,100999.88
2023-01-29T01:01:47.029Z,101005.40
2023-01-29T01:04:13.959Z,101010.66
2023-01-29T01:06:41.723Z,101006.59
2023-01-29T01:09:09.746Z,101008.10
2023-01-29T01:11:36.226Z,101005.95
2023-01-29T01:14:02.707Z,101006.13
2023-01-29T01:16:29.244Z,101001.83
2023-01-29T01:18:55.862Z,101004.25
2023-01-29T01:21:22.343Z,101006.45
2023-01-29T01:23:48.825Z,101006.72
2023-01-29T01:26:15.338Z,101006.42
2023-01-29T01:28:41.820Z,101009.09
2023-01-29T01:31:13.136Z,101007.27
2023-01-29T01:33:40.328Z,101012.88
2023-01-29T01:36:08.048Z,101013.45
2023-01-29T01:38:34.762Z,101022.19
2023-01-29T01:41:01.403Z,101021.65
2023-01-29T01:43:27.927Z,101023.83
2023-01-29T01:45:54.436Z,101027.01
2023-01-29T01:48:26.589Z,101027.42
2023-01-29T01:50:55.046Z,101028.45
2023-01-29T01:53:28.845Z,101029.81
2023-01-29T01:55:59.688Z,101030.39
2023-01-29T01:58:31.848Z,101028.16
2023-01-29T02:00:58.410Z,101024.48
2023-01-29T02:03:28.278Z,101025.77
2023-01-29T02:05:58.333Z,101025.59
2023-01-29T02:08:32.470Z,101024.51
2023-01-29T02:10:59.430Z,101028.75
2023-01-29T02:13:27.059Z,101023.20
2023-01-29T02:15:53.522Z,101030.58
2023-01-29T02:18:21.533Z,101031.36
2023-01-29T02:21:06.638Z,101033.48
2023-01-29T02:23:43.741Z,101034.33
2023-01-29T02:27:03.092Z,101032.29
2023-01-29T02:29:39.324Z,101037.56
2023-01-29T02:32:36.088Z,101035.92
2023-01-29T02:35:16.745Z,101041.77
2023-01-29T02:38:08.467Z,101043.95
2023-01-29T02:40:47.062Z,101044.05
2023-01-29T02:43:22.488Z,101045.80
2023-01-29T02:46:17.207Z,101051.45
2023-01-29T02:49:22.515Z,101050.23
2023-01-29T02:52:14.974Z,101049.16
2023-01-29T02:54:48.949Z,101054.02
2023-01-29T02:57:23.116Z,101058.82
2023-01-29T03:00:00.284Z,101066.04
2023-01-29T03:02:35.892Z,101063.35
2023-01-29T03:05:08.422Z,101065.66
2023-01-29T03:07:40.533Z,101070.38
2023-01-29T03:10:28.630Z,101071.55
2023-01-29T03:13:01.336Z,101074.09
2023-01-29T03:15:36.269Z,101077.33
2023-01-29T03:18:11.330Z,101075.89
2023-01-29T03:20:43.555Z,101071.89
2023-01-29T03:23:19.164Z,101075.18
2023-01-29T03:25:45.867Z,101074.31
2023-01-29T03:28:17.494Z,101079.30
2023-01-29T03:31:10.129Z,101083.73
2023-01-29T03:33:43.682Z,101087.56
2023-01-29T03:36:16.948Z,101086.50
2023-01-29T03:38:44.577Z,101087.21
2023-01-29T03:41:22.344Z,101087.86
2023-01-29T03:44:00.535Z,101084.05
2023-01-29T03:46:36.318Z,101087.75
2023-01-29T03:49:15.277Z,101088.37
2023-01-29T03:51:51.373Z,101090.11
2023-01-29T03:54:46.913Z,101090.59
2023-01-29T03:57:55.617Z,101091.36
2023-01-29T04:00:37.945Z,101092.95
2023-01-29T04:03:20.519Z,101090.07
2023-01-29T04:05:58.093Z,101090.81
2023-01-29T04:08:29.179Z,101085.42
2023-01-29T04:10:59.407Z,101089.94
2023-01-29T04:13:27.510Z,101089.23
2023-01-29T04:15:58.198Z,101093.11
2023-01-29T04:18:25.143Z,101089.67
2023-01-29T04:20:52.747Z,101087.70
2023-01-29T04:23:24.874Z,101088.97
2023-01-29T04:26:04.560Z,101090.64
2023-01-29T04:28:50.945Z,101085.66
2023-01-29T04:31:18.127Z,101085.95
2023-01-29T04:33:56.299Z,101085.66
2023-01-29T04:36:52.027Z,101079.74
2023-01-29T04:39:25.132Z,101078.41
2023-01-29T04:41:59.302Z,101084.58
2023-01-29T04:44:36.490Z,101085.00
2023-01-29T04:47:25.064Z,101089.52
2023-01-29T04:50:20.872Z,101087.02
2023-01-29T04:53:07.954Z,101086.99
2023-01-29T04:55:43.135Z,101085.89
2023-01-29T04:58:15.266Z,101085.39
2023-01-29T05:00:48.787Z,101085.13
2023-01-29T05:03:16.795Z,101089.88
2023-01-29T05:05:47.497Z,101090.09
2023-01-29T05:08:17.701Z,101089.17
2023-01-29T05:10:46.253Z,101086.79
2023-01-29T05:13:14.987Z,101079.48
2023-01-29T05:15:49.541Z,101079.95
2023-01-29T05:18:16.460Z,101088.20
2023-01-29T05:20:43.952Z,101090.24
2023-01-29T05:23:19.166Z,101091.63
2023-01-29T05:25:46.937Z,101091.77
2023-01-29T05:28:13.925Z,101091.84
2023-01-29T05:30:40.449Z,101092.93
2023-01-29T05:33:16.720Z,101083.50
2023-01-29T05:35:43.277Z,101079.01
2023-01-29T05:38:10.368Z,101079.94
2023-01-29T05:40:37.705Z,101079.75
2023-01-29T05:43:04.659Z,101082.56
2023-01-29T05:45:32.096Z,101083.78
2023-01-29T05:47:59.791Z,101087.70
2023-01-29T05:50:27.866Z,101086.51
2023-01-29T05:52:58.996Z,101080.09
2023-01-29T05:55:26.135Z,101080.23
2023-01-29T05:57:52.725Z,101087.32
2023-01-29T06:00:19.716Z,101079.83
2023-01-29T06:02:46.206Z,101085.39
2023-01-29T06:05:12.687Z,101088.38
2023-01-29T06:07:39.482Z,101089.38
2023-01-29T06:10:06.457Z,101089.03
2023-01-29T06:12:32.981Z,101092.92
2023-01-29T06:14:59.426Z,101096.36
2023-01-29T06:17:25.913Z,101100.45
2023-01-29T06:19:52.377Z,101100.10
2023-01-29T06:22:18.950Z,101102.54
2023-01-29T06:24:45.400Z,101105.67
2023-01-29T06:27:11.926Z,101114.65
2023-01-29T06:29:38.431Z,101116.77
2023-01-29T06:32:05.286Z,101123.89
2023-01-29T06:34:31.911Z,101125.20
2023-01-29T06:36:58.404Z,101131.60
2023-01-29T06:39:24.911Z,101140.28
2023-01-29T06:41:51.397Z,101143.02
2023-01-29T06:44:17.923Z,101146.09
2023-01-29T06:46:44.389Z,101146.76
2023-01-29T06:49:10.892Z,101148.76
2023-01-29T06:51:37.440Z,101155.23
2023-01-29T06:54:04.199Z,101154.11
2023-01-29T06:56:30.733Z,101154.17
2023-01-29T06:58:57.277Z,101161.31
2023-01-29T07:01:35.626Z,101157.73
2023-01-29T07:04:02.992Z,101155.71
2023-01-29T07:06:30.673Z,101156.15
2023-01-29T07:08:57.152Z,101160.98
2023-01-29T07:11:24.029Z,101158.31
2023-01-29T07:13:50.660Z,101156.42
2023-01-29T07:16:17.238Z,101154.26
2023-01-29T07:18:43.732Z,101149.39
2023-01-29T07:21:10.255Z,101149.24
2023-01-29T07:23:37.240Z,101150.48
2023-01-29T07:26:06.373Z,101144.30
2023-01-29T07:28:37.469Z,101142.73
2023-01-29T07:31:05.392Z,101139.16
2023-01-29T07:33:32.441Z,101126.26
2023-01-29T07:35:58.988Z,101128.65
2023-01-29T07:38:25.828Z,101127.63
2023-01-29T07:40:53.076Z,101126.20
2023-01-29T07:43:19.928Z,101129.80
2023-01-29T07:45:46.528Z,101131.05
2023-01-29T07:48:13.888Z,101125.97
2023-01-29T07:50:41.144Z,101130.27
2023-01-29T07:53:10.028Z,101126.46
2023-01-29T07:55:36.513Z,101117.73
2023-01-29T07:58:03.509Z,101115.99
2023-01-29T08:00:32.024Z,101121.02
2023-01-29T08:03:06.242Z,101131.20
2023-01-29T08:05:33.286Z,101130.14
2023-01-29T08:08:06.559Z,101127.34
2023-01-29T08:10:35.759Z,101127.98
2023-01-29T08:13:03.207Z,101124.05
2023-01-29T08:15:30.409Z,101124.84
2023-01-29T08:17:58.486Z,101127.33
2023-01-29T08:20:25.949Z,101129.07
2023-01-29T08:23:03.983Z,101128.68
2023-01-29T08:25:30.646Z,101130.95
2023-01-29T08:27:58.563Z,101134.59
2023-01-29T08:30:29.918Z,101139.09
2023-01-29T08:32:56.388Z,101142.18
2023-01-29T08:35:23.124Z,101146.60
2023-01-29T08:37:54.144Z,101147.98
2023-01-29T08:40:21.321Z,101148.42
2023-01-29T08:42:47.926Z,101153.85
2023-01-29T08:45:14.432Z,101157.06
2023-01-29T08:47:48.890Z,101164.55
2023-01-29T08:50:16.985Z,101173.21
2023-01-29T08:52:44.107Z,101175.75
2023-01-29T08:55:11.304Z,101180.16
2023-01-29T08:57:39.068Z,101186.47
2023-01-29T09:00:08.288Z,101186.02
2023-01-29T09:02:34.967Z,101186.14
2023-01-29T09:05:01.574Z,101184.91
2023-01-29T09:07:29.686Z,101185.66
2023-01-29T09:09:56.188Z,101186.57
2023-01-29T09:12:22.725Z,101186.59
2023-01-29T09:14:49.226Z,101190.70
2023-01-29T09:17:15.763Z,101193.44
2023-01-29T09:19:42.199Z,101187.22
2023-01-29T09:22:10.905Z,101185.52
2023-01-29T09:24:38.060Z,101189.69
2023-01-29T09:27:04.552Z,101191.65
2023-01-29T09:29:31.050Z,101192.73
2023-01-29T09:31:57.622Z,101190.18
2023-01-29T09:34:24.198Z,101194.40
2023-01-29T09:36:52.650Z,101188.55
2023-01-29T09:39:19.099Z,101190.34
2023-01-29T09:41:57.093Z,101191.30
2023-01-29T09:44:45.288Z,101194.45
2023-01-29T09:47:15.946Z,101194.67
2023-01-29T09:49:58.278Z,101198.35
2023-01-29T09:52:33.182Z,101197.59
2023-01-29T09:55:05.913Z,101199.88
2023-01-29T09:57:46.480Z,101198.48
2023-01-29T10:00:23.261Z,101198.46
2023-01-29T10:02:58.923Z,101200.70
2023-01-29T10:05:31.159Z,101198.04
2023-01-29T10:08:16.441Z,101194.61
2023-01-29T10:11:04.543Z,101197.14
2023-01-29T10:14:06.685Z,101197.77
2023-01-29T10:16:57.965Z,101198.90
2023-01-29T10:19:52.358Z,101204.20
2023-01-29T10:22:37.681Z,101202.80
2023-01-29T10:25:10.146Z,101194.35
2023-01-29T10:27:41.065Z,101189.73
2023-01-29T10:30:21.742Z,101192.02
2023-01-29T10:32:48.750Z,101188.83
2023-01-29T10:35:23.580Z,101189.73
2023-01-29T10:37:53.234Z,101193.44
2023-01-29T10:40:40.869Z,101192.48
2023-01-29T10:43:29.589Z,101197.25
2023-01-29T10:46:37.619Z,101194.71
2023-01-29T10:49:28.263Z,101193.33
2023-01-29T10:52:25.028Z,101185.16
2023-01-29T10:54:51.491Z,101177.95
2023-01-29T10:57:56.576Z,101176.38
2023-01-29T11:00:30.223Z,101178.61
2023-01-29T11:02:57.063Z,101171.83
2023-01-29T11:05:34.131Z,101161.38
2023-01-29T11:08:10.166Z,101155.23
2023-01-29T11:10:50.275Z,101152.79
2023-01-29T11:13:18.127Z,101156.45
2023-01-29T11:15:44.823Z,101155.38
2023-01-29T11:18:14.413Z,101152.70
2023-01-29T11:20:45.788Z,101149.50
2023-01-29T11:23:33.397Z,101144.66
2023-01-29T11:26:00.999Z,101141.17
2023-01-29T11:28:42.134Z,101138.36
2023-01-29T11:31:22.721Z,101133.15
2023-01-29T11:33:52.225Z,101135.19
2023-01-29T11:36:29.626Z,101134.92
2023-01-29T11:39:26.490Z,101129.64
2023-01-29T11:42:01.081Z,101124.48
2023-01-29T11:44:40.069Z,101117.83
2023-01-29T11:47:19.093Z,101115.13
2023-01-29T11:49:49.278Z,101110.52
2023-01-29T11:52:19.168Z,101106.46
2023-01-29T11:54:57.750Z,101103.92
2023-01-29T11:57:25.352Z,101087.91
2023-01-29T11:59:53.680Z,101083.84
2023-01-29T12:02:26.114Z,101088.33
2023-01-29T12:04:55.420Z,101084.43
2023-01-29T12:07:22.476Z,101089.13
2023-01-29T12:09:59.719Z,101084.30
2023-01-29T12:12:31.921Z,101092.51
2023-01-29T12:15:16.941Z,101088.41
2023-01-29T12:17:51.023Z,101081.42
2023-01-29T12:20:25.504Z,101078.71
2023-01-29T12:23:02.595Z,101079.52
2023-01-29T12:25:50.359Z,101076.46
2023-01-29T12:28:30.158Z,101073.88
2023-01-29T12:31:35.458Z,101075.92
2023-01-29T12:34:08.328Z,101081.52
2023-01-29T12:36:50.366Z,101077.63
2023-01-29T12:39:17.507Z,101076.15
2023-01-29T12:41:52.818Z,101074.10
2023-01-29T12:44:28.509Z,101074.42
2023-01-29T12:46:59.434Z,101075.77
2023-01-29T12:49:30.640Z,101076.01
2023-01-29T12:52:11.887Z,101074.81
2023-01-29T12:54:43.222Z,101069.87
2023-01-29T12:57:24.216Z,101066.92
2023-01-29T12:59:58.218Z,101067.00
2023-01-29T13:02:35.175Z,101067.77
2023-01-29T13:05:37.688Z,101070.79
2023-01-29T13:08:08.791Z,101060.70
2023-01-29T13:10:41.297Z,101054.09
2023-01-29T13:13:34.702Z,101047.36
2023-01-29T13:16:05.453Z,101038.32
2023-01-29T13:18:40.827Z,101032.59
2023-01-29T13:21:13.256Z,101033.95
2023-01-29T13:23:45.059Z,101030.64
2023-01-29T13:26:13.812Z,101025.27
2023-01-29T13:28:44.596Z,101020.94
2023-01-29T13:31:33.604Z,101015.43
2023-01-29T13:34:21.744Z,101005.98
2023-01-29T13:36:51.779Z,101005.16
2023-01-29T13:39:29.722Z,101003.87
2023-01-29T13:41:58.133Z,100999.71
2023-01-29T13:44:29.507Z,101002.88
2023-01-29T13:47:03.434Z,101002.15
2023-01-29T13:49:35.291Z,101003.92
2023-01-29T13:52:43.428Z,101003.70
2023-01-29T13:55:19.405Z,101009.11
2023-01-29T13:57:45.974Z,101013.61
2023-01-29T14:00:21.587Z,101007.02
2023-01-29T14:03:00.250Z,101008.20
2023-01-29T14:05:29.801Z,100998.13
2023-01-29T14:08:05.825Z,100986.45
2023-01-29T14:10:34.263Z,100991.02
2023-01-29T14:13:03.881Z,101000.77
2023-01-29T14:15:36.221Z,101003.26
2023-01-29T14:18:09.012Z,101002.81
2023-01-29T14:20:45.652Z,101015.08
2023-01-29T14:23:29.196Z,101018.96
2023-01-29T14:25:57.353Z,101015.23
2023-01-29T14:28:28.240Z,101013.85
2023-01-29T14:30:55.564Z,101015.47
2023-01-29T14:33:34.653Z,101018.45
2023-01-29T14:36:06.389Z,101021.19
2023-01-29T14:38:33.821Z,101024.58
2023-01-29T14:41:25.577Z,101019.67
2023-01-29T14:43:52.107Z,101031.33
2023-01-29T14:46:33.696Z,101029.10
2023-01-29T14:49:01.134Z,101029.13
2023-01-29T14:51:34.375Z,101027.44
2023-01-29T14:54:00.831Z,101031.28
2023-01-29T14:56:45.658Z,101034.42
2023-01-29T14:59:27.866Z,101037.73
2023-01-29T15:01:56.917Z,101035.45
2023-01-29T15:04:43.621Z,101040.45
2023-01-29T15:07:10.023Z,101039.60
2023-01-29T15:09:47.951Z,101041.63
2023-01-29T15:12:20.592Z,101041.34
2023-01-29T15:15:10.309Z,101040.55
2023-01-29T15:17:46.468Z,101040.77
2023-01-29T15:20:35.579Z,101042.92
2023-01-29T15:23:04.027Z,101038.74
2023-01-29T15:25:47.303Z,101035.77
2023-01-29T15:28:13.798Z,101034.67
2023-01-29T15:30:40.476Z,101029.06
2023-01-29T15:33:10.505Z,101027.86
2023-01-29T15:35:39.626Z,101023.98
2023-01-29T15:38:23.718Z,101027.67
2023-01-29T15:41:01.489Z,101031.82
2023-01-29T15:43:36.448Z,101031.15
2023-01-29T15:46:07.096Z,101034.05
2023-01-29T15:48:40.521Z,101035.33
2023-01-29T15:51:19.652Z,101035.63
2023-01-29T15:53:51.882Z,101037.09
2023-01-29T15:56:21.559Z,101036.00
2023-01-29T15:58:50.020Z,101042.17
2023-01-29T16:01:17.094Z,101042.64
2023-01-29T16:03:44.956Z,101043.71
2023-01-29T16:06:11.882Z,101041.13
2023-01-29T16:08:39.967Z,101038.98
2023-01-29T16:11:08.734Z,101043.45
2023-01-29T16:13:41.201Z,101039.21
2023-01-29T16:16:23.739Z,101038.77
2023-01-29T16:18:59.510Z,101039.73
2023-01-29T16:21:35.264Z,101042.13
2023-01-29T16:24:03.298Z,101044.83
2023-01-29T16:26:36.810Z,101049.17
2023-01-29T16:29:12.141Z,101051.88
2023-01-29T16:31:40.003Z,101051.77
2023-01-29T16:34:18.290Z,101054.96
2023-01-29T16:36:49.033Z,101063.31
2023-01-29T16:39:26.480Z,101065.91
2023-01-29T16:42:11.110Z,101065.23
2023-01-29T16:44:45.461Z,101068.55
2023-01-29T16:47:13.978Z,101071.05
2023-01-29T16:49:40.417Z,101072.48
2023-01-29T16:52:28.840Z,101077.95
2023-01-29T16:55:12.012Z,101079.83
2023-01-29T16:57:40.336Z,101079.55
2023-01-29T17:00:12.000Z,101078.75
2023-01-29T17:02:39.329Z,101079.83
2023-01-29T17:05:09.677Z,101079.44
2023-01-29T17:07:36.955Z,101078.09
2023-01-29T17:10:06.366Z,101080.68
2023-01-29T17:12:33.900Z,101076.30
2023-01-29T17:15:04.006Z,101077.92
2023-01-29T17:17:31.817Z,101078.37
2023-01-29T17:20:15.751Z,101080.02
2023-01-29T17:22:42.366Z,101076.70
2023-01-29T17:25:13.322Z,101075.15
2023-01-29T17:27:44.168Z,101070.33
2023-01-29T17:30:18.182Z,101072.54
2023-01-29T17:32:47.527Z,101070.65
2023-01-29T17:35:16.027Z,101064.83
2023-01-29T17:37:43.012Z,101058.83
2023-01-29T17:40:45.594Z,101056.88
2023-01-29T17:43:12.230Z,101051.64
2023-01-29T17:45:40.172Z,101048.22
2023-01-29T17:48:24.162Z,101042.47
2023-01-29T17:50:53.511Z,101044.73
2023-01-29T17:53:26.529Z,101040.34
2023-01-29T17:55:57.246Z,101031.59
2023-01-29T17:58:25.926Z,101030.55
2023-01-29T18:00:53.503Z,101028.30
2023-01-29T18:03:20.848Z,101025.59
2023-01-29T18:05:49.057Z,101025.80
2023-01-29T18:08:22.075Z,101025.70
2023-01-29T18:10:48.520Z,101019.23
2023-01-29T18:13:14.988Z,101022.16
2023-01-29T18:15:41.562Z,101027.33
2023-01-29T18:18:13.633Z,101019.50
2023-01-29T18:20:40.274Z,101016.11
2023-01-29T18:23:08.154Z,101017.45
2023-01-29T18:25:35.058Z,101016.63
2023-01-29T18:28:02.500Z,101012.08
2023-01-29T18:30:29.079Z,101009.14
2023-01-29T18:32:55.682Z,101007.49
2023-01-29T18:35:22.185Z,101006.84
2023-01-29T18:37:48.684Z,101008.04
2023-01-29T18:40:15.681Z,101006.11
2023-01-29T18:42:42.259Z,101009.08
2023-01-29T18:45:09.211Z,101008.44
2023-01-29T18:47:35.723Z,101011.95
2023-01-29T18:50:02.220Z,101012.30
2023-01-29T18:52:28.719Z,101016.07
2023-01-29T18:54:55.278Z,101015.45
2023-01-29T18:58:27.239Z,101015.23
2023-01-29T19:00:09.150Z,101017.29
2023-01-29T19:02:35.732Z,101013.71
2023-01-29T19:05:02.408Z,101011.16
2023-01-29T19:07:29.228Z,101011.45
2023-01-29T19:09:55.765Z,101012.44
2023-01-29T19:12:23.235Z,101017.48
2023-01-29T19:14:49.787Z,101018.05
2023-01-29T19:17:16.312Z,101014.42
2023-01-29T19:19:43.070Z,101012.64
2023-01-29T19:22:09.569Z,101006.98
2023-01-29T19:24:36.027Z,101009.04
2023-01-29T19:27:02.576Z,101005.36
2023-01-29T19:29:29.123Z,101002.25
2023-01-29T19:31:55.728Z,101004.34
2023-01-29T19:34:22.203Z,101006.44
2023-01-29T19:36:48.691Z,101009.87
2023-01-29T19:39:15.211Z,101006.74
2023-01-29T19:41:41.752Z,101007.80
2023-01-29T19:44:08.405Z,101004.58
2023-01-29T19:46:34.950Z,100996.48
2023-01-29T19:49:01.868Z,100994.39
2023-01-29T19:51:29.314Z,100994.97
2023-01-29T19:53:55.961Z,100997.32
2023-01-29T19:56:22.521Z,100995.82
2023-01-29T19:58:48.989Z,100998.98
2023-01-29T20:01:16.814Z,101000.63
2023-01-29T20:03:44.404Z,100997.65
2023-01-29T20:06:10.867Z,100994.95
2023-01-29T20:08:37.486Z,100991.61
2023-01-29T20:11:04.259Z,100991.73
2023-01-29T20:13:31.499Z,100991.62
2023-01-29T20:15:58.190Z,100996.80
2023-01-29T20:18:24.713Z,100994.52
2023-01-29T20:20:51.537Z,100995.88
2023-01-29T20:23:31.826Z,100990.52
2023-01-29T20:26:03.754Z,100987.02
2023-01-29T20:28:33.068Z,100979.86
2023-01-29T20:30:59.733Z,100976.87
2023-01-29T20:33:26.955Z,100973.91
2023-01-29T20:35:58.303Z,100971.77
2023-01-29T20:38:25.908Z,100965.52
2023-01-29T20:40:52.371Z,100969.34
2023-01-29T20:43:18.848Z,100975.20
2023-01-29T20:45:45.358Z,100975.04
2023-01-29T20:48:11.935Z,100971.58
2023-01-29T20:50:38.557Z,100971.67
2023-01-29T20:53:05.037Z,100971.30
2023-01-29T20:55:31.692Z,100973.52
2023-01-29T20:58:06.377Z,100975.43
2023-01-29T21:00:33.487Z,100976.52
2023-01-29T21:03:01.301Z,100977.52
2023-01-29T21:05:27.780Z,100977.73
2023-01-29T21:07:54.251Z,100979.31
2023-01-29T21:10:20.768Z,100973.42
2023-01-29T21:12:47.266Z,100976.31
2023-01-29T21:15:13.755Z,100978.85
2023-01-29T21:17:40.263Z,100982.02
2023-01-29T21:20:07.314Z,100989.38
2023-01-29T21:22:34.075Z,100999.23
2023-01-29T21:25:00.632Z,100999.30
2023-01-29T21:27:27.119Z,100997.10
2023-01-29T21:29:53.612Z,100999.64
2023-01-29T21:32:20.116Z,101000.11
2023-01-29T21:34:46.587Z,101001.95
2023-01-29T21:37:13.191Z,101000.76
2023-01-29T21:39:39.658Z,101001.65
2023-01-29T21:42:06.274Z,100999.97
2023-01-29T21:44:34.089Z,100996.67
2023-01-29T21:47:01.044Z,100998.21
2023-01-29T21:49:27.743Z,100996.89
2023-01-29T21:51:54.239Z,100994.95
2023-01-29T21:54:20.725Z,100991.23
2023-01-29T21:56:47.324Z,100993.08
2023-01-29T21:59:13.930Z,100988.42
2023-01-29T22:01:40.416Z,100983.02
2023-01-29T22:04:06.962Z,100978.98
2023-01-29T22:06:36.162Z,100985.25
2023-01-29T22:09:02.867Z,100979.73
2023-01-29T22:11:29.573Z,100977.20
2023-01-29T22:13:56.028Z,100973.73
2023-01-29T22:16:22.566Z,100974.16
2023-01-29T22:18:49.467Z,100970.00
2023-01-29T22:21:15.940Z,100961.22
2023-01-29T22:23:42.503Z,100954.89
2023-01-29T22:26:10.868Z,100945.91
2023-01-29T22:28:37.387Z,100945.29
2023-01-29T22:31:05.495Z,100946.42
2023-01-29T22:33:32.379Z,100939.31
2023-01-29T22:35:59.655Z,100941.55
2023-01-29T22:38:26.203Z,100937.54
2023-01-29T22:40:54.081Z,100936.11
2023-01-29T22:43:21.615Z,100930.04
2023-01-29T22:45:48.406Z,100929.20
2023-01-29T22:48:15.478Z,100924.98
2023-01-29T22:50:41.946Z,100925.04
2023-01-29T22:53:08.960Z,100923.35
2023-01-29T22:55:35.415Z,100923.92
2023-01-29T22:58:01.908Z,100922.68
2023-01-29T23:00:28.412Z,100920.80
2023-01-29T23:02:54.926Z,100915.44
2023-01-29T23:05:21.409Z,100915.16
2023-01-29T23:07:47.921Z,100915.59
2023-01-29T23:10:15.040Z,100917.69
2023-01-29T23:12:41.686Z,100915.39
2023-01-29T23:15:08.446Z,100916.70
2023-01-29T23:17:34.978Z,100916.07
2023-01-29T23:20:01.777Z,100911.18
2023-01-29T23:22:29.451Z,100909.97
2023-01-29T23:24:55.953Z,100912.02
2023-01-29T23:27:22.417Z,100910.71
2023-01-29T23:29:49.042Z,100907.33
2023-01-29T23:32:19.983Z,100902.42
2023-01-29T23:34:46.521Z,100893.98
2023-01-29T23:37:13.620Z,100885.63
2023-01-29T23:39:40.171Z,100884.95
2023-01-29T23:42:06.687Z,100882.95
2023-01-29T23:44:33.454Z,100883.52
2023-01-29T23:46:59.975Z,100883.26
2023-01-29T23:49:26.800Z,100881.40
2023-01-29T23:51:53.356Z,100880.39
2023-01-29T23:54:19.844Z,100881.20
2023-01-29T23:56:46.361Z,100879.01
2023-01-29T23:59:13.055Z,100872.73
